sensor_id;sensor_type;location;lat;lon;timestamp;P1;durP1;ratioP1;P2;durP2;ratioP2
5929;SDS011;2990;48.746;9.236;2022-10-16T00:00:43;652.97;;;609.65;;
5929;SDS011;2990;48.746;9.236;2022-10-16T00:03:09;650.75;;;608.67;;
5929;SDS011;2990;48.746;9.236;2022-10-16T00:05:42;684.97;;;639.58;;
5929;SDS011;2990;48.746;9.236;2022-10-16T00:08:09;653.88;;;611.83;;
5929;SDS011;2990;48.746;9.236;2022-10-16T00:10:36;681.42;;;636.30;;
5929;SDS011;2990;48.746;9.236;2022-10-16T00:13:02;682.70;;;638.38;;
5929;SDS011;2990;48.746;9.236;2022-10-16T00:15:28;655.83;;;612.97;;
5929;SDS011;2990;48.746;9.236;2022-10-16T00:17:53;683.83;;;638.85;;
5929;SDS011;2990;48.746;9.236;2022-10-16T00:20:19;677.95;;;633.92;;
5929;SDS011;2990;48.746;9.236;2022-10-16T00:22:44;695.65;;;650.08;;
5929;SDS011;2990;48.746;9.236;2022-10-16T00:25:10;671.97;;;627.65;;
5929;SDS011;2990;48.746;9.236;2022-10-16T00:27:36;679.75;;;635.17;;
5929;SDS011;2990;48.746;9.236;2022-10-16T00:30:01;687.25;;;642.83;;
5929;SDS011;2990;48.746;9.236;2022-10-16T00:32:28;672.42;;;627.72;;
5929;SDS011;2990;48.746;9.236;2022-10-16T00:34:53;672.03;;;627.83;;
5929;SDS011;2990;48.746;9.236;2022-10-16T00:37:22;670.22;;;626.35;;
5929;SDS011;2990;48.746;9.236;2022-10-16T00:39:47;687.90;;;642.90;;
5929;SDS011;2990;48.746;9.236;2022-10-16T00:42:16;689.13;;;643.75;;
5929;SDS011;2990;48.746;9.236;2022-10-16T00:44:47;688.75;;;643.65;;
5929;SDS011;2990;48.746;9.236;2022-10-16T00:47:22;692.33;;;647.25;;
5929;SDS011;2990;48.746;9.236;2022-10-16T00:49:53;658.70;;;615.20;;
5929;SDS011;2990;48.746;9.236;2022-10-16T00:52:26;638.30;;;596.83;;
5929;SDS011;2990;48.746;9.236;2022-10-16T00:54:53;662.70;;;619.25;;
5929;SDS011;2990;48.746;9.236;2022-10-16T00:57:19;669.33;;;625.83;;
5929;SDS011;2990;48.746;9.236;2022-10-16T00:59:45;640.40;;;598.72;;
5929;SDS011;2990;48.746;9.236;2022-10-16T01:02:13;587.65;;;550.38;;
5929;SDS011;2990;48.746;9.236;2022-10-16T01:04:44;586.00;;;549.13;;
5929;SDS011;2990;48.746;9.236;2022-10-16T01:09:51;604.25;;;566.05;;
5929;SDS011;2990;48.746;9.236;2022-10-16T01:12:38;587.22;;;550.42;;
5929;SDS011;2990;48.746;9.236;2022-10-16T01:15:26;545.85;;;512.90;;
5929;SDS011;2990;48.746;9.236;2022-10-16T01:18:09;520.30;;;489.27;;
5929;SDS011;2990;48.746;9.236;2022-10-16T01:20:58;515.60;;;485.75;;
5929;SDS011;2990;48.746;9.236;2022-10-16T01:23:31;489.40;;;461.13;;
5929;SDS011;2990;48.746;9.236;2022-10-16T01:29:21;501.92;;;472.73;;
5929;SDS011;2990;48.746;9.236;2022-10-16T01:32:16;513.05;;;483.05;;
5929;SDS011;2990;48.746;9.236;2022-10-16T01:34:58;525.15;;;493.92;;
5929;SDS011;2990;48.746;9.236;2022-10-16T01:40:23;525.22;;;493.65;;
5929;SDS011;2990;48.746;9.236;2022-10-16T01:42:53;536.03;;;504.23;;
5929;SDS011;2990;48.746;9.236;2022-10-16T01:45:23;532.85;;;501.33;;
5929;SDS011;2990;48.746;9.236;2022-10-16T01:47:49;539.15;;;507.25;;
5929;SDS011;2990;48.746;9.236;2022-10-16T01:50:17;493.90;;;465.38;;
5929;SDS011;2990;48.746;9.236;2022-10-16T01:52:46;495.45;;;466.58;;
5929;SDS011;2990;48.746;9.236;2022-10-16T01:55:17;523.53;;;492.90;;
5929;SDS011;2990;48.746;9.236;2022-10-16T01:57:47;484.05;;;455.92;;
5929;SDS011;2990;48.746;9.236;2022-10-16T02:00:16;524.30;;;493.48;;
5929;SDS011;2990;48.746;9.236;2022-10-16T02:02:45;493.40;;;464.63;;
5929;SDS011;2990;48.746;9.236;2022-10-16T02:05:25;522.53;;;491.70;;
5929;SDS011;2990;48.746;9.236;2022-10-16T02:08:02;513.38;;;483.30;;
5929;SDS011;2990;48.746;9.236;2022-10-16T02:10:27;533.22;;;501.77;;
5929;SDS011;2990;48.746;9.236;2022-10-16T02:15:30;550.80;;;517.85;;
5929;SDS011;2990;48.746;9.236;2022-10-16T02:17:55;545.80;;;513.22;;
5929;SDS011;2990;48.746;9.236;2022-10-16T02:20:22;530.17;;;498.42;;
5929;SDS011;2990;48.746;9.236;2022-10-16T02:22:51;561.60;;;527.65;;
5929;SDS011;2990;48.746;9.236;2022-10-16T02:25:24;533.30;;;501.45;;
5929;SDS011;2990;48.746;9.236;2022-10-16T02:28:03;553.85;;;520.70;;
5929;SDS011;2990;48.746;9.236;2022-10-16T02:30:40;537.22;;;505.38;;
5929;SDS011;2990;48.746;9.236;2022-10-16T02:33:13;530.28;;;498.80;;
5929;SDS011;2990;48.746;9.236;2022-10-16T02:35:41;520.83;;;490.20;;
5929;SDS011;2990;48.746;9.236;2022-10-16T02:38:10;477.83;;;450.55;;
5929;SDS011;2990;48.746;9.236;2022-10-16T02:40:36;473.95;;;446.85;;
5929;SDS011;2990;48.746;9.236;2022-10-16T02:43:03;474.70;;;447.73;;
5929;SDS011;2990;48.746;9.236;2022-10-16T02:45:29;433.98;;;409.98;;
5929;SDS011;2990;48.746;9.236;2022-10-16T02:47:55;383.23;;;362.83;;
5929;SDS011;2990;48.746;9.236;2022-10-16T02:50:20;324.88;;;308.48;;
5929;SDS011;2990;48.746;9.236;2022-10-16T02:52:47;305.25;;;290.02;;
5929;SDS011;2990;48.746;9.236;2022-10-16T02:55:12;276.98;;;263.50;;
5929;SDS011;2990;48.746;9.236;2022-10-16T02:57:38;292.60;;;278.30;;
5929;SDS011;2990;48.746;9.236;2022-10-16T03:00:05;270.23;;;257.27;;
5929;SDS011;2990;48.746;9.236;2022-10-16T03:02:36;233.73;;;222.82;;
5929;SDS011;2990;48.746;9.236;2022-10-16T03:05:02;201.90;;;192.73;;
5929;SDS011;2990;48.746;9.236;2022-10-16T03:07:27;209.57;;;200.07;;
5929;SDS011;2990;48.746;9.236;2022-10-16T03:09:53;195.20;;;186.25;;
5929;SDS011;2990;48.746;9.236;2022-10-16T03:12:19;190.40;;;181.75;;
5929;SDS011;2990;48.746;9.236;2022-10-16T03:14:45;194.10;;;185.32;;
5929;SDS011;2990;48.746;9.236;2022-10-16T03:17:10;205.80;;;196.32;;
5929;SDS011;2990;48.746;9.236;2022-10-16T03:19:37;224.05;;;213.70;;
5929;SDS011;2990;48.746;9.236;2022-10-16T03:22:03;221.00;;;210.80;;
5929;SDS011;2990;48.746;9.236;2022-10-16T03:24:28;207.98;;;198.38;;
5929;SDS011;2990;48.746;9.236;2022-10-16T03:26:54;192.20;;;183.55;;
5929;SDS011;2990;48.746;9.236;2022-10-16T03:29:19;206.73;;;197.27;;
5929;SDS011;2990;48.746;9.236;2022-10-16T03:31:45;219.57;;;209.48;;
5929;SDS011;2990;48.746;9.236;2022-10-16T03:34:11;228.07;;;217.52;;
5929;SDS011;2990;48.746;9.236;2022-10-16T03:36:36;216.55;;;206.60;;
5929;SDS011;2990;48.746;9.236;2022-10-16T03:39:02;228.05;;;217.50;;
5929;SDS011;2990;48.746;9.236;2022-10-16T03:41:28;238.55;;;227.43;;
5929;SDS011;2990;48.746;9.236;2022-10-16T03:43:53;277.90;;;264.45;;
5929;SDS011;2990;48.746;9.236;2022-10-16T03:46:19;285.80;;;271.75;;
5929;SDS011;2990;48.746;9.236;2022-10-16T03:48:44;272.10;;;258.83;;
5929;SDS011;2990;48.746;9.236;2022-10-16T03:51:10;279.90;;;266.15;;
5929;SDS011;2990;48.746;9.236;2022-10-16T03:53:36;303.85;;;288.65;;
5929;SDS011;2990;48.746;9.236;2022-10-16T03:56:01;348.63;;;330.38;;
5929;SDS011;2990;48.746;9.236;2022-10-16T03:58:27;332.80;;;315.38;;
5929;SDS011;2990;48.746;9.236;2022-10-16T04:00:52;312.73;;;297.20;;
5929;SDS011;2990;48.746;9.236;2022-10-16T04:03:18;266.48;;;253.60;;
5929;SDS011;2990;48.746;9.236;2022-10-16T04:05:44;224.85;;;214.52;;
5929;SDS011;2990;48.746;9.236;2022-10-16T04:08:09;212.18;;;202.48;;
5929;SDS011;2990;48.746;9.236;2022-10-16T04:10:35;216.38;;;206.45;;
5929;SDS011;2990;48.746;9.236;2022-10-16T04:13:01;205.77;;;196.35;;
5929;SDS011;2990;48.746;9.236;2022-10-16T04:15:26;207.52;;;197.98;;
5929;SDS011;2990;48.746;9.236;2022-10-16T04:17:52;203.68;;;194.35;;
5929;SDS011;2990;48.746;9.236;2022-10-16T04:20:18;218.27;;;208.32;;
5929;SDS011;2990;48.746;9.236;2022-10-16T04:22:43;198.50;;;189.50;;
5929;SDS011;2990;48.746;9.236;2022-10-16T04:25:09;198.98;;;189.95;;
5929;SDS011;2990;48.746;9.236;2022-10-16T04:27:36;185.43;;;177.13;;
5929;SDS011;2990;48.746;9.236;2022-10-16T04:30:01;168.20;;;160.77;;
5929;SDS011;2990;48.746;9.236;2022-10-16T04:32:28;141.30;;;135.10;;
5929;SDS011;2990;48.746;9.236;2022-10-16T04:34:53;118.93;;;113.88;;
5929;SDS011;2990;48.746;9.236;2022-10-16T04:37:22;139.70;;;133.70;;
5929;SDS011;2990;48.746;9.236;2022-10-16T04:39:49;160.77;;;153.73;;
5929;SDS011;2990;48.746;9.236;2022-10-16T04:42:15;163.00;;;155.82;;
5929;SDS011;2990;48.746;9.236;2022-10-16T04:44:40;148.57;;;142.10;;
5929;SDS011;2990;48.746;9.236;2022-10-16T04:47:06;141.35;;;135.27;;
5929;SDS011;2990;48.746;9.236;2022-10-16T04:49:31;148.18;;;141.77;;
5929;SDS011;2990;48.746;9.236;2022-10-16T04:51:57;163.88;;;156.68;;
5929;SDS011;2990;48.746;9.236;2022-10-16T04:54:22;171.75;;;164.18;;
5929;SDS011;2990;48.746;9.236;2022-10-16T04:56:48;177.23;;;169.32;;
5929;SDS011;2990;48.746;9.236;2022-10-16T04:59:15;190.65;;;182.05;;
5929;SDS011;2990;48.746;9.236;2022-10-16T05:01:41;187.27;;;178.88;;
5929;SDS011;2990;48.746;9.236;2022-10-16T05:04:07;204.80;;;195.50;;
5929;SDS011;2990;48.746;9.236;2022-10-16T05:06:33;214.10;;;204.18;;
5929;SDS011;2990;48.746;9.236;2022-10-16T05:08:58;208.88;;;199.25;;
5929;SDS011;2990;48.746;9.236;2022-10-16T05:11:24;221.73;;;211.40;;
5929;SDS011;2990;48.746;9.236;2022-10-16T05:13:49;229.95;;;219.07;;
5929;SDS011;2990;48.746;9.236;2022-10-16T05:16:15;296.48;;;281.80;;
5929;SDS011;2990;48.746;9.236;2022-10-16T05:18:41;347.00;;;329.00;;
5929;SDS011;2990;48.746;9.236;2022-10-16T05:21:06;378.42;;;357.95;;
5929;SDS011;2990;48.746;9.236;2022-10-16T05:23:32;457.77;;;431.95;;
5929;SDS011;2990;48.746;9.236;2022-10-16T05:25:58;478.75;;;451.15;;
5929;SDS011;2990;48.746;9.236;2022-10-16T05:28:28;500.85;;;471.52;;
5929;SDS011;2990;48.746;9.236;2022-10-16T05:30:55;505.90;;;476.38;;
5929;SDS011;2990;48.746;9.236;2022-10-16T05:33:21;528.05;;;496.48;;
5929;SDS011;2990;48.746;9.236;2022-10-16T05:35:48;508.90;;;478.98;;
5929;SDS011;2990;48.746;9.236;2022-10-16T05:38:14;531.65;;;500.35;;
5929;SDS011;2990;48.746;9.236;2022-10-16T05:40:40;520.67;;;489.98;;
5929;SDS011;2990;48.746;9.236;2022-10-16T05:43:06;502.73;;;473.65;;
5929;SDS011;2990;48.746;9.236;2022-10-16T05:45:32;489.38;;;461.25;;
5929;SDS011;2990;48.746;9.236;2022-10-16T05:47:57;427.73;;;404.00;;
5929;SDS011;2990;48.746;9.236;2022-10-16T05:50:23;408.80;;;386.52;;
5929;SDS011;2990;48.746;9.236;2022-10-16T05:52:48;354.08;;;335.73;;
5929;SDS011;2990;48.746;9.236;2022-10-16T05:55:14;289.25;;;275.00;;
5929;SDS011;2990;48.746;9.236;2022-10-16T05:57:40;242.07;;;230.77;;
5929;SDS011;2990;48.746;9.236;2022-10-16T06:00:05;222.30;;;211.98;;
5929;SDS011;2990;48.746;9.236;2022-10-16T06:02:31;221.75;;;211.48;;
5929;SDS011;2990;48.746;9.236;2022-10-16T06:04:57;211.88;;;202.20;;
5929;SDS011;2990;48.746;9.236;2022-10-16T06:07:23;192.77;;;184.02;;
5929;SDS011;2990;48.746;9.236;2022-10-16T06:09:49;195.02;;;186.23;;
5929;SDS011;2990;48.746;9.236;2022-10-16T06:12:15;172.40;;;164.82;;
5929;SDS011;2990;48.746;9.236;2022-10-16T06:14:41;137.35;;;131.35;;
5929;SDS011;2990;48.746;9.236;2022-10-16T06:17:07;99.82;;;95.63;;
5929;SDS011;2990;48.746;9.236;2022-10-16T06:19:32;93.13;;;89.20;;
5929;SDS011;2990;48.746;9.236;2022-10-16T06:21:58;104.72;;;100.28;;
5929;SDS011;2990;48.746;9.236;2022-10-16T06:24:24;85.53;;;81.97;;
5929;SDS011;2990;48.746;9.236;2022-10-16T06:26:49;70.40;;;67.50;;
5929;SDS011;2990;48.746;9.236;2022-10-16T06:29:15;61.72;;;59.17;;
5929;SDS011;2990;48.746;9.236;2022-10-16T06:31:41;60.03;;;57.47;;
5929;SDS011;2990;48.746;9.236;2022-10-16T06:34:08;61.42;;;58.88;;
5929;SDS011;2990;48.746;9.236;2022-10-16T06:36:35;66.30;;;63.53;;
5929;SDS011;2990;48.746;9.236;2022-10-16T06:39:02;88.25;;;84.50;;
5929;SDS011;2990;48.746;9.236;2022-10-16T06:41:28;106.70;;;102.18;;
5929;SDS011;2990;48.746;9.236;2022-10-16T06:43:53;143.07;;;136.80;;
5929;SDS011;2990;48.746;9.236;2022-10-16T06:46:20;140.25;;;134.20;;
5929;SDS011;2990;48.746;9.236;2022-10-16T06:48:47;169.32;;;161.35;;
5929;SDS011;2990;48.746;9.236;2022-10-16T06:51:20;229.88;;;219.15;;
5929;SDS011;2990;48.746;9.236;2022-10-16T06:53:53;259.70;;;247.30;;
5929;SDS011;2990;48.746;9.236;2022-10-16T06:56:25;302.83;;;287.85;;
5929;SDS011;2990;48.746;9.236;2022-10-16T06:58:52;405.35;;;382.80;;
5929;SDS011;2990;48.746;9.236;2022-10-16T07:01:19;486.63;;;458.25;;
5929;SDS011;2990;48.746;9.236;2022-10-16T07:03:46;539.95;;;507.38;;
5929;SDS011;2990;48.746;9.236;2022-10-16T07:06:13;538.45;;;506.23;;
5929;SDS011;2990;48.746;9.236;2022-10-16T07:08:40;557.92;;;524.08;;
5929;SDS011;2990;48.746;9.236;2022-10-16T07:11:09;533.17;;;501.27;;
5929;SDS011;2990;48.746;9.236;2022-10-16T07:13:36;549.38;;;516.55;;
5929;SDS011;2990;48.746;9.236;2022-10-16T07:16:13;539.58;;;507.50;;
5929;SDS011;2990;48.746;9.236;2022-10-16T07:18:40;594.58;;;558.45;;
5929;SDS011;2990;48.746;9.236;2022-10-16T07:21:12;609.80;;;571.78;;
5929;SDS011;2990;48.746;9.236;2022-10-16T07:23:40;608.70;;;570.20;;
5929;SDS011;2990;48.746;9.236;2022-10-16T07:26:06;625.67;;;585.80;;
5929;SDS011;2990;48.746;9.236;2022-10-16T07:28:32;657.00;;;614.30;;
5929;SDS011;2990;48.746;9.236;2022-10-16T07:31:02;670.53;;;626.60;;
5929;SDS011;2990;48.746;9.236;2022-10-16T07:33:29;646.67;;;604.90;;
5929;SDS011;2990;48.746;9.236;2022-10-16T07:35:55;680.35;;;635.30;;
5929;SDS011;2990;48.746;9.236;2022-10-16T07:38:21;657.65;;;614.47;;
5929;SDS011;2990;48.746;9.236;2022-10-16T07:40:47;632.58;;;591.33;;
5929;SDS011;2990;48.746;9.236;2022-10-16T07:43:14;633.28;;;592.42;;
5929;SDS011;2990;48.746;9.236;2022-10-16T07:45:46;664.75;;;621.22;;
5929;SDS011;2990;48.746;9.236;2022-10-16T07:48:14;675.58;;;631.50;;
5929;SDS011;2990;48.746;9.236;2022-10-16T07:50:39;680.10;;;635.83;;
5929;SDS011;2990;48.746;9.236;2022-10-16T07:53:06;647.35;;;605.53;;
5929;SDS011;2990;48.746;9.236;2022-10-16T07:55:31;688.22;;;643.25;;
5929;SDS011;2990;48.746;9.236;2022-10-16T07:57:57;699.95;;;653.97;;
5929;SDS011;2990;48.746;9.236;2022-10-16T08:00:22;697.53;;;651.83;;
5929;SDS011;2990;48.746;9.236;2022-10-16T08:02:48;661.40;;;618.47;;
5929;SDS011;2990;48.746;9.236;2022-10-16T08:05:13;666.80;;;623.50;;
5929;SDS011;2990;48.746;9.236;2022-10-16T08:07:39;702.40;;;656.15;;
5929;SDS011;2990;48.746;9.236;2022-10-16T08:10:05;691.13;;;645.88;;
5929;SDS011;2990;48.746;9.236;2022-10-16T08:12:30;680.38;;;635.97;;
5929;SDS011;2990;48.746;9.236;2022-10-16T08:14:56;694.88;;;648.83;;
5929;SDS011;2990;48.746;9.236;2022-10-16T08:17:21;708.75;;;661.97;;
5929;SDS011;2990;48.746;9.236;2022-10-16T08:19:47;684.70;;;639.78;;
5929;SDS011;2990;48.746;9.236;2022-10-16T08:22:13;697.95;;;652.60;;
5929;SDS011;2990;48.746;9.236;2022-10-16T08:24:39;701.28;;;655.10;;
5929;SDS011;2990;48.746;9.236;2022-10-16T08:27:05;730.42;;;681.60;;
5929;SDS011;2990;48.746;9.236;2022-10-16T08:29:31;715.20;;;667.80;;
5929;SDS011;2990;48.746;9.236;2022-10-16T08:31:57;738.92;;;689.80;;
5929;SDS011;2990;48.746;9.236;2022-10-16T08:34:22;754.47;;;703.97;;
5929;SDS011;2990;48.746;9.236;2022-10-16T08:36:48;773.33;;;720.95;;
5929;SDS011;2990;48.746;9.236;2022-10-16T08:39:13;789.35;;;735.60;;
5929;SDS011;2990;48.746;9.236;2022-10-16T08:41:56;833.10;;;775.92;;
5929;SDS011;2990;48.746;9.236;2022-10-16T08:44:58;852.35;;;793.67;;
5929;SDS011;2990;48.746;9.236;2022-10-16T08:50:14;867.53;;;806.95;;
5929;SDS011;2990;48.746;9.236;2022-10-16T08:52:53;869.05;;;807.15;;
5929;SDS011;2990;48.746;9.236;2022-10-16T08:58:14;879.60;;;817.72;;
5929;SDS011;2990;48.746;9.236;2022-10-16T09:00:42;840.20;;;781.08;;
5929;SDS011;2990;48.746;9.236;2022-10-16T09:03:23;890.25;;;827.30;;
5929;SDS011;2990;48.746;9.236;2022-10-16T09:17:15;902.95;;;838.35;;
5929;SDS011;2990;48.746;9.236;2022-10-16T09:22:35;886.78;;;823.70;;
5929;SDS011;2990;48.746;9.236;2022-10-16T09:25:04;856.63;;;797.05;;
5929;SDS011;2990;48.746;9.236;2022-10-16T09:27:37;873.13;;;811.85;;
5929;SDS011;2990;48.746;9.236;2022-10-16T09:30:10;882.75;;;820.03;;
5929;SDS011;2990;48.746;9.236;2022-10-16T09:32:41;853.00;;;793.10;;
5929;SDS011;2990;48.746;9.236;2022-10-16T09:35:19;873.85;;;812.22;;
5929;SDS011;2990;48.746;9.236;2022-10-16T09:37:51;856.25;;;796.58;;
5929;SDS011;2990;48.746;9.236;2022-10-16T09:40:26;902.10;;;837.13;;
5929;SDS011;2990;48.746;9.236;2022-10-16T09:43:02;962.22;;;890.80;;
5929;SDS011;2990;48.746;9.236;2022-10-16T09:45:37;884.13;;;822.03;;
5929;SDS011;2990;48.746;9.236;2022-10-16T09:48:10;884.78;;;822.28;;
5929;SDS011;2990;48.746;9.236;2022-10-16T09:50:37;683.00;;;637.28;;
5929;SDS011;2990;48.746;9.236;2022-10-16T09:53:13;732.42;;;683.15;;
5929;SDS011;2990;48.746;9.236;2022-10-16T09:55:49;914.20;;;848.42;;
5929;SDS011;2990;48.746;9.236;2022-10-16T09:58:16;531.17;;;497.88;;
5929;SDS011;2990;48.746;9.236;2022-10-16T10:00:42;670.78;;;625.88;;
5929;SDS011;2990;48.746;9.236;2022-10-16T10:03:21;328.70;;;310.73;;
5929;SDS011;2990;48.746;9.236;2022-10-16T10:06:05;85.22;;;81.60;;
5929;SDS011;2990;48.746;9.236;2022-10-16T10:08:41;76.43;;;73.28;;
5929;SDS011;2990;48.746;9.236;2022-10-16T10:11:37;113.43;;;108.45;;
5929;SDS011;2990;48.746;9.236;2022-10-16T10:14:05;180.63;;;172.32;;
5929;SDS011;2990;48.746;9.236;2022-10-16T10:16:38;230.05;;;219.00;;
5929;SDS011;2990;48.746;9.236;2022-10-16T10:19:04;150.20;;;143.50;;
5929;SDS011;2990;48.746;9.236;2022-10-16T10:21:32;362.13;;;342.42;;
5929;SDS011;2990;48.746;9.236;2022-10-16T10:23:58;412.65;;;389.52;;
5929;SDS011;2990;48.746;9.236;2022-10-16T10:26:24;446.52;;;420.95;;
5929;SDS011;2990;48.746;9.236;2022-10-16T10:28:55;549.17;;;516.10;;
5929;SDS011;2990;48.746;9.236;2022-10-16T10:31:48;557.70;;;523.95;;
5929;SDS011;2990;48.746;9.236;2022-10-16T10:37:02;636.60;;;596.80;;
5929;SDS011;2990;48.746;9.236;2022-10-16T10:39:40;621.08;;;582.33;;
5929;SDS011;2990;48.746;9.236;2022-10-16T10:42:20;653.08;;;611.35;;
5929;SDS011;2990;48.746;9.236;2022-10-16T10:47:36;811.00;;;757.13;;
5929;SDS011;2990;48.746;9.236;2022-10-16T10:50:20;881.70;;;818.70;;
5929;SDS011;2990;48.746;9.236;2022-10-16T11:01:53;1025.00;;;945.80;;
5929;SDS011;2990;48.746;9.236;2022-10-16T11:04:46;941.25;;;873.40;;
5929;SDS011;2990;48.746;9.236;2022-10-16T11:07:26;1046.85;;;960.70;;
5929;SDS011;2990;48.746;9.236;2022-10-16T11:10:05;1151.38;;;999.90;;
5929;SDS011;2990;48.746;9.236;2022-10-16T11:12:41;1194.38;;;999.90;;
5929;SDS011;2990;48.746;9.236;2022-10-16T11:18:01;1252.82;;;999.90;;
5929;SDS011;2990;48.746;9.236;2022-10-16T11:23:31;1173.68;;;999.90;;
5929;SDS011;2990;48.746;9.236;2022-10-16T11:26:02;1151.43;;;999.90;;
5929;SDS011;2990;48.746;9.236;2022-10-16T11:28:42;864.60;;;802.22;;
5929;SDS011;2990;48.746;9.236;2022-10-16T11:34:06;682.42;;;636.30;;
5929;SDS011;2990;48.746;9.236;2022-10-16T11:36:41;862.25;;;800.63;;
5929;SDS011;2990;48.746;9.236;2022-10-16T11:39:24;924.53;;;856.22;;
5929;SDS011;2990;48.746;9.236;2022-10-16T11:42:03;829.05;;;771.60;;
5929;SDS011;2990;48.746;9.236;2022-10-16T11:47:19;971.78;;;898.08;;
5929;SDS011;2990;48.746;9.236;2022-10-16T11:50:26;664.22;;;619.38;;
5929;SDS011;2990;48.746;9.236;2022-10-16T11:55:42;386.30;;;363.30;;
5929;SDS011;2990;48.746;9.236;2022-10-16T11:58:12;227.48;;;215.43;;
5929;SDS011;2990;48.746;9.236;2022-10-16T12:03:34;501.23;;;470.45;;
5929;SDS011;2990;48.746;9.236;2022-10-16T12:06:17;400.45;;;377.60;;
5929;SDS011;2990;48.746;9.236;2022-10-16T12:08:57;488.75;;;459.45;;
5929;SDS011;2990;48.746;9.236;2022-10-16T12:16:37;678.25;;;633.78;;
5929;SDS011;2990;48.746;9.236;2022-10-16T12:19:16;716.58;;;669.53;;
5929;SDS011;2990;48.746;9.236;2022-10-16T12:21:43;724.80;;;676.90;;
5929;SDS011;2990;48.746;9.236;2022-10-16T12:24:20;792.95;;;740.10;;
5929;SDS011;2990;48.746;9.236;2022-10-16T12:26:57;791.97;;;739.03;;
5929;SDS011;2990;48.746;9.236;2022-10-16T12:29:30;840.75;;;784.15;;
5929;SDS011;2990;48.746;9.236;2022-10-16T12:32:23;811.70;;;757.60;;
5929;SDS011;2990;48.746;9.236;2022-10-16T12:38:06;817.05;;;762.80;;
5929;SDS011;2990;48.746;9.236;2022-10-16T12:40:47;836.45;;;781.03;;
5929;SDS011;2990;48.746;9.236;2022-10-16T12:43:44;885.70;;;825.50;;
5929;SDS011;2990;48.746;9.236;2022-10-16T12:48:38;836.45;;;780.83;;
5929;SDS011;2990;48.746;9.236;2022-10-16T12:51:11;838.08;;;782.10;;
5929;SDS011;2990;48.746;9.236;2022-10-16T12:53:46;874.38;;;814.50;;
5929;SDS011;2990;48.746;9.236;2022-10-16T12:56:24;854.05;;;797.22;;
5929;SDS011;2990;48.746;9.236;2022-10-16T12:59:09;829.10;;;773.83;;
5929;SDS011;2990;48.746;9.236;2022-10-16T13:10:16;794.22;;;742.38;;
5929;SDS011;2990;48.746;9.236;2022-10-16T13:18:19;770.20;;;719.40;;
5929;SDS011;2990;48.746;9.236;2022-10-16T13:27:01;708.20;;;661.58;;
5929;SDS011;2990;48.746;9.236;2022-10-16T13:29:53;727.40;;;680.03;;
5929;SDS011;2990;48.746;9.236;2022-10-16T13:32:27;733.65;;;685.88;;
5929;SDS011;2990;48.746;9.236;2022-10-16T13:34:52;746.97;;;697.97;;
5929;SDS011;2990;48.746;9.236;2022-10-16T13:37:19;780.47;;;729.67;;
5929;SDS011;2990;48.746;9.236;2022-10-16T13:39:47;764.78;;;714.75;;
5929;SDS011;2990;48.746;9.236;2022-10-16T13:42:14;767.67;;;717.08;;
5929;SDS011;2990;48.746;9.236;2022-10-16T13:44:51;711.78;;;665.28;;
5929;SDS011;2990;48.746;9.236;2022-10-16T13:47:25;684.58;;;639.80;;
5929;SDS011;2990;48.746;9.236;2022-10-16T13:50:11;684.53;;;639.80;;
5929;SDS011;2990;48.746;9.236;2022-10-16T13:52:38;689.15;;;644.25;;
5929;SDS011;2990;48.746;9.236;2022-10-16T13:55:11;680.90;;;636.25;;
5929;SDS011;2990;48.746;9.236;2022-10-16T13:57:38;644.00;;;602.22;;
5929;SDS011;2990;48.746;9.236;2022-10-16T14:00:16;640.67;;;599.47;;
5929;SDS011;2990;48.746;9.236;2022-10-16T14:02:50;509.45;;;479.27;;
5929;SDS011;2990;48.746;9.236;2022-10-16T14:05:27;537.70;;;505.90;;
5929;SDS011;2990;48.746;9.236;2022-10-16T14:07:53;546.53;;;513.33;;
5929;SDS011;2990;48.746;9.236;2022-10-16T14:10:24;509.30;;;478.80;;
5929;SDS011;2990;48.746;9.236;2022-10-16T14:13:03;472.45;;;445.23;;
5929;SDS011;2990;48.746;9.236;2022-10-16T14:15:31;407.05;;;384.60;;
5929;SDS011;2990;48.746;9.236;2022-10-16T14:18:01;345.08;;;327.02;;
5929;SDS011;2990;48.746;9.236;2022-10-16T14:20:29;311.80;;;295.83;;
5929;SDS011;2990;48.746;9.236;2022-10-16T14:22:58;234.68;;;223.63;;
5929;SDS011;2990;48.746;9.236;2022-10-16T14:25:29;315.92;;;299.55;;
5929;SDS011;2990;48.746;9.236;2022-10-16T14:28:03;280.77;;;266.60;;
5929;SDS011;2990;48.746;9.236;2022-10-16T14:30:48;453.52;;;427.65;;
5929;SDS011;2990;48.746;9.236;2022-10-16T14:38:35;305.55;;;290.00;;
5929;SDS011;2990;48.746;9.236;2022-10-16T14:41:02;165.68;;;158.02;;
5929;SDS011;2990;48.746;9.236;2022-10-16T14:43:33;91.40;;;87.50;;
5929;SDS011;2990;48.746;9.236;2022-10-16T14:46:01;143.25;;;136.95;;
5929;SDS011;2990;48.746;9.236;2022-10-16T14:48:29;203.30;;;193.80;;
5929;SDS011;2990;48.746;9.236;2022-10-16T14:50:55;349.50;;;330.85;;
5929;SDS011;2990;48.746;9.236;2022-10-16T14:53:21;295.92;;;280.88;;
5929;SDS011;2990;48.746;9.236;2022-10-16T14:55:46;281.80;;;267.63;;
5929;SDS011;2990;48.746;9.236;2022-10-16T14:58:20;179.75;;;171.52;;
5929;SDS011;2990;48.746;9.236;2022-10-16T15:00:47;120.13;;;114.85;;
5929;SDS011;2990;48.746;9.236;2022-10-16T15:03:14;143.10;;;136.68;;
5929;SDS011;2990;48.746;9.236;2022-10-16T15:05:39;98.05;;;93.85;;
5929;SDS011;2990;48.746;9.236;2022-10-16T15:08:05;47.42;;;45.53;;
5929;SDS011;2990;48.746;9.236;2022-10-16T15:10:31;61.53;;;58.92;;
5929;SDS011;2990;48.746;9.236;2022-10-16T15:13:00;74.05;;;70.90;;
5929;SDS011;2990;48.746;9.236;2022-10-16T15:15:28;116.20;;;111.15;;
5929;SDS011;2990;48.746;9.236;2022-10-16T15:17:58;72.97;;;69.85;;
5929;SDS011;2990;48.746;9.236;2022-10-16T15:20:27;134.50;;;128.50;;
5929;SDS011;2990;48.746;9.236;2022-10-16T15:22:55;119.43;;;114.25;;
5929;SDS011;2990;48.746;9.236;2022-10-16T15:25:29;130.23;;;124.57;;
5929;SDS011;2990;48.746;9.236;2022-10-16T15:27:55;226.90;;;215.98;;
5929;SDS011;2990;48.746;9.236;2022-10-16T15:30:21;284.30;;;270.00;;
5929;SDS011;2990;48.746;9.236;2022-10-16T15:32:46;298.95;;;283.90;;
5929;SDS011;2990;48.746;9.236;2022-10-16T15:35:12;259.02;;;246.48;;
5929;SDS011;2990;48.746;9.236;2022-10-16T15:37:38;427.27;;;403.55;;
5929;SDS011;2990;48.746;9.236;2022-10-16T15:40:03;345.38;;;327.27;;
5929;SDS011;2990;48.746;9.236;2022-10-16T15:42:29;210.15;;;200.20;;
5929;SDS011;2990;48.746;9.236;2022-10-16T15:44:55;138.25;;;132.10;;
5929;SDS011;2990;48.746;9.236;2022-10-16T15:47:20;78.28;;;74.93;;
5929;SDS011;2990;48.746;9.236;2022-10-16T15:49:46;54.28;;;52.05;;
5929;SDS011;2990;48.746;9.236;2022-10-16T15:52:12;44.92;;;43.17;;
5929;SDS011;2990;48.746;9.236;2022-10-16T15:54:37;68.50;;;65.15;;
5929;SDS011;2990;48.746;9.236;2022-10-16T15:57:03;91.05;;;86.25;;
5929;SDS011;2990;48.746;9.236;2022-10-16T15:59:28;120.72;;;115.25;;
5929;SDS011;2990;48.746;9.236;2022-10-16T16:01:55;112.18;;;107.25;;
5929;SDS011;2990;48.746;9.236;2022-10-16T16:04:20;152.20;;;145.52;;
5929;SDS011;2990;48.746;9.236;2022-10-16T16:06:46;141.68;;;135.23;;
5929;SDS011;2990;48.746;9.236;2022-10-16T16:09:12;223.48;;;212.75;;
5929;SDS011;2990;48.746;9.236;2022-10-16T16:11:38;263.92;;;251.07;;
5929;SDS011;2990;48.746;9.236;2022-10-16T16:14:05;320.50;;;304.13;;
5929;SDS011;2990;48.746;9.236;2022-10-16T16:16:31;368.25;;;348.52;;